createdAt,value
2023-12-27T00:00:05.880Z,18.87
2023-12-27T00:02:32.790Z,6.60
2023-12-27T00:04:59.429Z,4.60
2023-12-27T00:07:26.105Z,12.90
2023-12-27T00:09:52.803Z,6.57
2023-12-27T00:12:19.581Z,9.00
2023-12-27T00:14:46.252Z,6.77
2023-12-27T00:17:12.976Z,5.37
2023-12-27T00:19:39.795Z,5.33
2023-12-27T00:22:06.532Z,3.97
2023-12-27T00:24:33.634Z,4.37
2023-12-27T00:27:00.353Z,5.50
2023-12-27T00:29:27.070Z,4.93
2023-12-27T00:31:53.805Z,6.30
2023-12-27T00:34:20.488Z,4.03
2023-12-27T00:36:47.233Z,4.30
2023-12-27T00:39:13.967Z,4.03
2023-12-27T00:41:40.640Z,3.93
2023-12-27T00:44:07.352Z,4.87
2023-12-27T00:46:34.048Z,6.13
2023-12-27T00:49:00.784Z,4.63
2023-12-27T00:51:27.525Z,6.10
2023-12-27T00:53:54.250Z,4.97
2023-12-27T00:56:20.896Z,5.80
2023-12-27T00:58:47.576Z,6.83
2023-12-27T01:01:14.539Z,5.30
2023-12-27T01:03:42.222Z,4.60
2023-12-27T01:06:10.307Z,13.07
2023-12-27T01:08:37.568Z,4.67
2023-12-27T01:11:04.795Z,6.40
2023-12-27T01:13:31.603Z,5.10
2023-12-27T01:16:00.398Z,5.67
2023-12-27T01:18:27.728Z,6.43
2023-12-27T01:20:54.576Z,6.07
2023-12-27T01:23:21.241Z,5.07
2023-12-27T01:25:47.937Z,5.63
2023-12-27T01:28:14.873Z,4.30
2023-12-27T01:30:41.792Z,4.93
2023-12-27T01:33:08.720Z,6.97
2023-12-27T01:35:35.450Z,8.00
2023-12-27T01:38:03.196Z,3.63
2023-12-27T01:40:31.338Z,6.97
2023-12-27T01:42:58.291Z,6.87
2023-12-27T01:45:25.246Z,5.90
2023-12-27T01:47:51.995Z,7.87
2023-12-27T01:50:19.527Z,4.50
2023-12-27T01:52:46.232Z,5.23
2023-12-27T01:55:13.128Z,8.70
2023-12-27T01:57:40.336Z,6.63
2023-12-27T02:00:08.577Z,5.10
2023-12-27T02:02:35.280Z,8.50
2023-12-27T02:05:02.038Z,5.57
2023-12-27T02:07:31.084Z,4.37
2023-12-27T02:09:58.914Z,5.33
2023-12-27T02:12:27.139Z,5.17
2023-12-27T02:14:53.940Z,4.77
2023-12-27T02:17:22.712Z,4.83
2023-12-27T02:19:50.096Z,5.97
2023-12-27T02:22:20.936Z,7.73
2023-12-27T02:24:56.644Z,6.00
2023-12-27T02:27:24.103Z,4.87
2023-12-27T02:29:50.903Z,4.80
2023-12-27T02:32:17.534Z,4.03
2023-12-27T02:34:44.501Z,5.33
2023-12-27T02:37:11.329Z,4.73
2023-12-27T02:39:37.983Z,6.93
2023-12-27T02:42:04.748Z,6.07
2023-12-27T02:44:31.449Z,6.37
2023-12-27T02:46:58.117Z,4.07
2023-12-27T02:49:24.875Z,5.47
2023-12-27T02:51:51.679Z,5.23
2023-12-27T02:54:18.339Z,7.90
2023-12-27T02:56:45.185Z,7.10
2023-12-27T02:59:11.927Z,4.50
2023-12-27T03:01:38.558Z,4.67
2023-12-27T03:04:05.247Z,4.20
2023-12-27T03:06:31.980Z,5.30
2023-12-27T03:08:58.799Z,4.87
2023-12-27T03:11:25.535Z,5.00
2023-12-27T03:13:52.165Z,6.63
2023-12-27T03:16:20.550Z,5.70
2023-12-27T03:18:47.347Z,6.77
2023-12-27T03:21:14.144Z,5.57
2023-12-27T03:23:40.795Z,5.00
2023-12-27T03:26:07.540Z,5.97
2023-12-27T03:28:34.212Z,4.93
2023-12-27T03:31:01.179Z,5.87
2023-12-27T03:33:28.137Z,5.20
2023-12-27T03:35:54.911Z,3.70
2023-12-27T03:38:21.614Z,7.30
2023-12-27T03:40:48.341Z,6.60
2023-12-27T03:43:15.427Z,4.40
2023-12-27T03:45:42.242Z,4.70
2023-12-27T03:48:09.305Z,5.63
2023-12-27T03:50:36.166Z,4.47
2023-12-27T03:53:02.920Z,5.97
2023-12-27T03:55:29.710Z,4.13
2023-12-27T03:57:56.576Z,5.83
2023-12-27T04:00:23.453Z,4.40
2023-12-27T04:02:50.276Z,6.20
2023-12-27T04:05:17.050Z,6.37
2023-12-27T04:07:43.729Z,5.80
2023-12-27T04:10:10.537Z,4.60
2023-12-27T04:12:37.291Z,5.60
2023-12-27T04:15:04.450Z,5.80
2023-12-27T04:17:31.268Z,4.67
2023-12-27T04:19:58.244Z,3.93
2023-12-27T04:22:24.888Z,4.27
2023-12-27T04:24:51.581Z,5.30
2023-12-27T04:27:18.227Z,6.90
2023-12-27T04:29:44.914Z,7.77
2023-12-27T04:32:11.573Z,6.37
2023-12-27T04:34:38.372Z,5.17
2023-12-27T04:37:06.723Z,6.10
2023-12-27T04:39:34.606Z,6.77
2023-12-27T04:42:01.424Z,6.40
2023-12-27T04:44:28.125Z,7.33
2023-12-27T04:46:54.851Z,7.03
2023-12-27T04:49:21.688Z,6.30
2023-12-27T04:51:48.616Z,4.50
2023-12-27T04:54:15.328Z,6.97
2023-12-27T04:56:41.982Z,5.63
2023-12-27T04:59:08.990Z,9.97
2023-12-27T05:01:35.682Z,6.50
2023-12-27T05:04:02.469Z,4.60
2023-12-27T05:06:29.273Z,8.33
2023-12-27T05:08:55.991Z,7.47
2023-12-27T05:11:23.013Z,7.47
2023-12-27T05:13:50.188Z,8.07
2023-12-27T05:16:18.886Z,6.20
2023-12-27T05:18:46.276Z,7.13
2023-12-27T05:21:14.847Z,5.53
2023-12-27T05:23:41.696Z,6.47
2023-12-27T05:26:08.504Z,5.47
2023-12-27T05:28:35.271Z,6.93
2023-12-27T05:31:02.238Z,6.43
2023-12-27T05:33:29.226Z,9.33
2023-12-27T05:35:58.241Z,5.00
2023-12-27T05:38:25.324Z,5.17
2023-12-27T05:40:52.007Z,6.40
2023-12-27T05:43:18.888Z,5.93
2023-12-27T05:45:45.625Z,5.20
2023-12-27T05:48:13.606Z,4.80
2023-12-27T05:50:40.343Z,5.70
2023-12-27T05:53:07.132Z,5.77
2023-12-27T05:55:33.997Z,5.43
2023-12-27T05:58:00.734Z,6.30
2023-12-27T06:00:27.514Z,7.93
2023-12-27T06:02:54.361Z,9.07
2023-12-27T06:05:21.376Z,6.43
2023-12-27T06:07:48.366Z,6.40
2023-12-27T06:10:16.169Z,6.87
2023-12-27T06:12:42.917Z,6.17
2023-12-27T06:15:12.232Z,4.83
2023-12-27T06:17:39.504Z,6.27
2023-12-27T06:20:09.165Z,5.00
2023-12-27T06:22:35.999Z,5.30
2023-12-27T06:25:02.739Z,7.27
2023-12-27T06:27:29.539Z,7.53
2023-12-27T06:29:56.277Z,5.77
2023-12-27T06:32:23.695Z,6.00
2023-12-27T06:34:50.500Z,7.57
2023-12-27T06:37:17.327Z,5.83
2023-12-27T06:39:44.259Z,8.87
2023-12-27T06:42:11.089Z,7.83
2023-12-27T06:44:37.935Z,8.20
2023-12-27T06:47:04.728Z,9.10
2023-12-27T06:49:31.685Z,7.00
2023-12-27T06:51:58.486Z,7.03
2023-12-27T06:54:25.459Z,10.70
2023-12-27T06:56:52.172Z,8.37
2023-12-27T06:59:18.871Z,6.83
2023-12-27T07:01:45.743Z,7.43
2023-12-27T07:04:12.809Z,8.57
2023-12-27T07:06:40.481Z,7.00
2023-12-27T07:09:08.621Z,7.60
2023-12-27T07:11:35.378Z,6.87
2023-12-27T07:14:02.135Z,8.73
2023-12-27T07:16:28.871Z,8.77
2023-12-27T07:18:55.686Z,6.77
2023-12-27T07:21:22.553Z,7.73
2023-12-27T07:23:49.351Z,7.70
2023-12-27T07:26:16.061Z,7.03
2023-12-27T07:28:43.317Z,7.43
2023-12-27T07:31:10.124Z,9.13
2023-12-27T07:33:38.527Z,9.23
2023-12-27T07:36:06.002Z,8.00
2023-12-27T07:38:32.666Z,5.43
2023-12-27T07:40:59.317Z,8.53
2023-12-27T07:43:26.676Z,7.37
2023-12-27T07:45:53.553Z,9.00
2023-12-27T07:48:20.322Z,4.63
2023-12-27T07:50:47.569Z,7.30
2023-12-27T07:53:14.240Z,7.07
2023-12-27T07:55:40.959Z,9.53
2023-12-27T07:58:09.596Z,7.27
2023-12-27T08:00:36.739Z,5.93
2023-12-27T08:03:09.648Z,5.87
2023-12-27T08:05:37.290Z,9.90
2023-12-27T08:08:07.165Z,8.30
2023-12-27T08:10:33.872Z,5.70
2023-12-27T08:13:01.488Z,6.67
2023-12-27T08:15:28.346Z,6.10
2023-12-27T08:17:56.354Z,7.67
2023-12-27T08:20:25.301Z,7.77
2023-12-27T08:22:52.664Z,4.90
2023-12-27T08:25:19.443Z,8.13
2023-12-27T08:27:46.246Z,8.30
2023-12-27T08:30:13.312Z,6.70
2023-12-27T08:32:40.620Z,8.30
2023-12-27T08:35:07.889Z,5.50
2023-12-27T08:37:34.514Z,7.63
2023-12-27T08:40:01.198Z,7.53
2023-12-27T08:42:27.968Z,7.30
2023-12-27T08:44:54.633Z,8.77
2023-12-27T08:47:21.354Z,7.50
2023-12-27T08:49:48.702Z,9.23
2023-12-27T08:52:15.405Z,6.77
2023-12-27T08:54:42.262Z,5.63
2023-12-27T08:57:10.502Z,6.77
2023-12-27T08:59:37.228Z,5.87
2023-12-27T09:02:05.057Z,7.47
2023-12-27T09:04:31.848Z,5.10
2023-12-27T09:06:58.616Z,6.70
2023-12-27T09:09:25.367Z,8.20
2023-12-27T09:11:52.050Z,6.90
2023-12-27T09:14:18.680Z,6.70
2023-12-27T09:16:45.619Z,6.23
2023-12-27T09:19:13.511Z,9.17
2023-12-27T09:21:47.103Z,6.57
2023-12-27T09:24:14.812Z,10.90
2023-12-27T09:26:42.111Z,8.50
2023-12-27T09:29:12.572Z,6.67
2023-12-27T09:31:39.645Z,7.40
2023-12-27T09:34:07.223Z,7.07
2023-12-27T09:36:34.222Z,8.13
2023-12-27T09:39:01.152Z,10.67
2023-12-27T09:41:27.864Z,7.83
2023-12-27T09:43:56.279Z,6.70
2023-12-27T09:46:25.717Z,13.43
2023-12-27T09:48:52.887Z,6.37
2023-12-27T09:51:24.692Z,7.90
2023-12-27T09:53:52.648Z,7.47
2023-12-27T09:56:27.115Z,9.27
2023-12-27T09:59:01.168Z,8.53
2023-12-27T10:01:31.187Z,8.60
2023-12-27T10:04:12.837Z,7.80
2023-12-27T10:06:44.658Z,6.87
2023-12-27T10:09:15.263Z,8.13
2023-12-27T10:11:44.033Z,7.63
2023-12-27T10:14:11.419Z,6.17
2023-12-27T10:16:38.139Z,7.77
2023-12-27T10:19:09.526Z,5.83
2023-12-27T10:21:43.745Z,5.57
2023-12-27T10:24:13.940Z,8.33
2023-12-27T10:26:40.618Z,7.43
2023-12-27T10:29:09.309Z,8.93
2023-12-27T10:31:36.319Z,9.80
2023-12-27T10:34:05.224Z,7.80
2023-12-27T10:36:32.346Z,39.43
2023-12-27T10:39:04.132Z,29.97
2023-12-27T10:41:33.686Z,14.33
2023-12-27T10:44:01.989Z,37.07
2023-12-27T10:46:28.814Z,23.73
2023-12-27T10:48:57.917Z,16.63
2023-12-27T10:51:26.997Z,12.40
2023-12-27T10:54:00.362Z,10.73
2023-12-27T10:56:27.909Z,20.37
2023-12-27T10:58:55.061Z,8.97
2023-12-27T11:01:23.175Z,7.10
2023-12-27T11:03:51.378Z,8.27
2023-12-27T11:06:18.817Z,8.80
2023-12-27T11:08:48.120Z,23.63
2023-12-27T11:11:15.683Z,15.17
2023-12-27T11:13:43.855Z,22.50
2023-12-27T11:16:13.781Z,17.87
2023-12-27T11:18:41.683Z,26.30
2023-12-27T11:21:08.409Z,11.07
2023-12-27T11:23:35.270Z,9.20
2023-12-27T11:26:03.308Z,8.20
2023-12-27T11:28:33.777Z,9.73
2023-12-27T11:31:01.080Z,8.80
2023-12-27T11:33:30.448Z,11.30
2023-12-27T11:35:59.317Z,10.03
2023-12-27T11:38:29.744Z,10.20
2023-12-27T11:40:58.548Z,8.73
2023-12-27T11:43:27.522Z,8.63
2023-12-27T11:46:01.387Z,8.97
2023-12-27T11:48:37.558Z,11.50
2023-12-27T11:51:29.519Z,10.90
2023-12-27T11:53:57.179Z,8.87
2023-12-27T11:56:24.540Z,11.50
2023-12-27T11:58:51.273Z,9.17
2023-12-27T12:01:29.814Z,8.97
2023-12-27T12:04:16.113Z,10.47
2023-12-27T12:06:55.182Z,8.73
2023-12-27T12:09:28.428Z,9.17
2023-12-27T12:11:55.369Z,10.73
2023-12-27T12:14:22.955Z,9.80
2023-12-27T12:16:51.197Z,7.33
2023-12-27T12:19:19.136Z,11.13
2023-12-27T12:21:47.138Z,8.00
2023-12-27T12:24:16.021Z,9.87
2023-12-27T12:26:47.118Z,7.77
2023-12-27T12:29:13.839Z,7.53
2023-12-27T12:31:41.574Z,7.20
2023-12-27T12:34:08.421Z,10.10
2023-12-27T12:36:35.367Z,10.60
2023-12-27T12:39:04.893Z,8.97
2023-12-27T12:41:32.712Z,8.27
2023-12-27T12:43:59.397Z,13.77
2023-12-27T12:46:26.462Z,11.27
2023-12-27T12:48:53.398Z,11.27
2023-12-27T12:51:21.243Z,9.57
2023-12-27T12:53:48.497Z,18.17
2023-12-27T12:56:15.702Z,18.53
2023-12-27T12:58:43.351Z,13.60
2023-12-27T13:01:13.662Z,15.17
2023-12-27T13:03:43.113Z,18.40
2023-12-27T13:06:14.619Z,20.53
2023-12-27T13:08:42.436Z,16.47
2023-12-27T13:11:09.920Z,15.63
2023-12-27T13:13:36.615Z,17.80
2023-12-27T13:16:03.329Z,13.23
2023-12-27T13:18:30.458Z,21.90
2023-12-27T13:20:57.489Z,14.90
2023-12-27T13:23:24.160Z,13.37
2023-12-27T13:25:50.881Z,21.63
2023-12-27T13:28:26.348Z,13.50
2023-12-27T13:30:56.889Z,18.73
2023-12-27T13:33:26.297Z,11.87
2023-12-27T13:35:53.347Z,18.23
2023-12-27T13:38:20.255Z,12.77
2023-12-27T13:40:47.080Z,16.60
2023-12-27T13:43:15.359Z,16.60
2023-12-27T13:45:42.270Z,15.33
2023-12-27T13:48:09.206Z,14.70
2023-12-27T13:50:36.667Z,15.90
2023-12-27T13:53:03.490Z,20.53
2023-12-27T13:55:30.814Z,16.60
2023-12-27T13:57:57.799Z,17.00
2023-12-27T14:00:25.338Z,13.03
2023-12-27T14:02:52.260Z,12.80
2023-12-27T14:05:19.324Z,23.40
2023-12-27T14:07:50.118Z,10.50
2023-12-27T14:10:19.634Z,11.57
2023-12-27T14:12:46.348Z,13.20
2023-12-27T14:15:14.632Z,14.30
2023-12-27T14:17:42.929Z,11.33
2023-12-27T14:20:16.339Z,12.03
2023-12-27T14:22:43.621Z,14.83
2023-12-27T14:25:11.744Z,10.67
2023-12-27T14:27:40.390Z,14.07
2023-12-27T14:30:08.446Z,10.00
2023-12-27T14:32:35.328Z,10.30
2023-12-27T14:35:05.487Z,10.53
2023-12-27T14:37:33.108Z,15.50
2023-12-27T14:40:00.353Z,14.27
2023-12-27T14:42:28.700Z,15.17
2023-12-27T14:44:55.658Z,17.33
2023-12-27T14:47:22.719Z,13.43
2023-12-27T14:49:49.904Z,17.00
2023-12-27T14:52:16.896Z,11.17
2023-12-27T14:54:45.728Z,15.70
2023-12-27T14:57:12.954Z,11.40
2023-12-27T14:59:39.716Z,11.60
2023-12-27T15:02:07.578Z,12.07
2023-12-27T15:04:34.641Z,14.67
2023-12-27T15:07:02.840Z,14.07
2023-12-27T15:09:29.769Z,12.80
2023-12-27T15:11:56.693Z,13.23
2023-12-27T15:14:23.515Z,12.47
2023-12-27T15:16:51.527Z,9.90
2023-12-27T15:19:19.778Z,18.33
2023-12-27T15:21:47.620Z,24.63
2023-12-27T15:24:14.672Z,20.57
2023-12-27T15:26:41.889Z,100.20
2023-12-27T15:29:10.364Z,26.90
2023-12-27T15:31:37.167Z,50.23
2023-12-27T15:34:04.271Z,79.37
2023-12-27T15:36:31.200Z,60.10
2023-12-27T15:38:57.967Z,36.30
2023-12-27T15:41:28.911Z,35.50
2023-12-27T15:44:02.232Z,27.03
2023-12-27T15:46:31.099Z,25.70
2023-12-27T15:48:59.179Z,31.87
2023-12-27T15:51:46.206Z,23.23
2023-12-27T15:54:14.358Z,21.07
2023-12-27T15:56:46.320Z,15.73
2023-12-27T15:59:14.611Z,12.93
2023-12-27T16:01:44.465Z,10.17
2023-12-27T16:04:13.822Z,9.77
2023-12-27T16:06:42.273Z,8.50
2023-12-27T16:09:09.189Z,9.37
2023-12-27T16:11:38.053Z,12.17
2023-12-27T16:14:04.846Z,12.10
2023-12-27T16:16:31.537Z,12.90
2023-12-27T16:18:58.545Z,9.57
2023-12-27T16:21:25.760Z,10.53
2023-12-27T16:23:52.614Z,9.83
2023-12-27T16:26:21.673Z,10.17
2023-12-27T16:28:49.271Z,11.97
2023-12-27T16:31:16.412Z,14.57
2023-12-27T16:33:43.413Z,18.40
2023-12-27T16:36:11.606Z,19.40
2023-12-27T16:38:41.296Z,22.57
2023-12-27T16:41:09.575Z,16.00
2023-12-27T16:43:40.385Z,12.83
2023-12-27T16:46:10.081Z,14.87
2023-12-27T16:48:37.054Z,13.07
2023-12-27T16:51:04.136Z,14.80
2023-12-27T16:53:31.019Z,15.13
2023-12-27T16:55:57.959Z,11.77
2023-12-27T16:58:24.613Z,13.43
2023-12-27T17:00:51.445Z,9.60
2023-12-27T17:03:18.640Z,17.13
2023-12-27T17:05:47.562Z,14.07
2023-12-27T17:08:22.759Z,12.57
2023-12-27T17:10:49.483Z,15.43
2023-12-27T17:13:36.564Z,12.90
2023-12-27T17:16:05.701Z,19.63
2023-12-27T17:18:32.555Z,15.47
2023-12-27T17:20:59.461Z,13.83
2023-12-27T17:23:26.244Z,12.10
2023-12-27T17:25:53.231Z,12.00
2023-12-27T17:28:19.994Z,8.93
2023-12-27T17:30:46.751Z,14.30
2023-12-27T17:33:13.661Z,10.03
2023-12-27T17:35:40.659Z,11.30
2023-12-27T17:38:07.383Z,14.40
2023-12-27T17:40:34.372Z,11.83
2023-12-27T17:43:02.148Z,12.33
2023-12-27T17:45:29.656Z,15.97
2023-12-27T17:47:56.930Z,16.50
2023-12-27T17:50:33.686Z,17.60
2023-12-27T17:53:03.038Z,12.90
2023-12-27T17:55:29.741Z,13.43
2023-12-27T17:57:59.787Z,12.83
2023-12-27T18:00:42.902Z,12.63
2023-12-27T18:06:12.356Z,18.10
2023-12-27T18:08:39.392Z,12.17
2023-12-27T18:11:06.273Z,10.20
2023-12-27T18:13:34.942Z,14.23
2023-12-27T18:16:02.237Z,14.13
2023-12-27T18:18:35.747Z,9.90
2023-12-27T18:21:07.329Z,8.30
2023-12-27T18:23:39.021Z,11.27
2023-12-27T18:26:08.602Z,12.20
2023-12-27T18:28:36.780Z,16.77
2023-12-27T18:31:03.769Z,12.87
2023-12-27T18:33:30.964Z,10.40
2023-12-27T18:35:59.052Z,10.27
2023-12-27T18:38:26.367Z,11.90
2023-12-27T18:40:54.024Z,10.60
2023-12-27T18:43:23.110Z,10.77
2023-12-27T18:45:49.851Z,14.13
2023-12-27T18:48:16.941Z,11.27
2023-12-27T18:50:43.967Z,15.87
2023-12-27T18:53:12.229Z,14.97
2023-12-27T18:55:38.969Z,17.80
2023-12-27T18:58:08.648Z,14.27
2023-12-27T19:04:01.727Z,16.30
2023-12-27T19:06:34.699Z,19.13
2023-12-27T19:09:38.232Z,18.87
2023-12-27T19:12:11.130Z,18.23
2023-12-27T19:14:38.692Z,16.13
2023-12-27T19:17:10.674Z,23.63
2023-12-27T19:19:37.561Z,18.67
2023-12-27T19:22:04.545Z,27.23
2023-12-27T19:25:28.888Z,13.90
2023-12-27T19:27:58.400Z,19.10
2023-12-27T19:30:25.606Z,17.07
2023-12-27T19:32:52.670Z,19.73
2023-12-27T19:35:19.905Z,22.43
2023-12-27T19:37:46.809Z,21.17
2023-12-27T19:43:02.093Z,19.60
2023-12-27T19:45:28.847Z,23.33
2023-12-27T19:47:56.277Z,19.53
2023-12-27T19:50:23.226Z,16.90
2023-12-27T19:55:33.403Z,16.80
2023-12-27T19:58:00.656Z,9.57
2023-12-27T20:00:27.630Z,15.70
2023-12-27T20:02:54.406Z,14.47
2023-12-27T20:05:21.088Z,19.47
2023-12-27T20:07:47.858Z,21.17
2023-12-27T20:10:15.060Z,12.17
2023-12-27T20:12:42.292Z,12.73
2023-12-27T20:15:29.877Z,17.03
2023-12-27T20:17:57.147Z,14.83
2023-12-27T20:20:24.591Z,15.63
2023-12-27T20:22:52.592Z,20.47
2023-12-27T20:25:47.146Z,22.40
2023-12-27T20:28:17.326Z,21.27
2023-12-27T20:30:46.617Z,16.53
2023-12-27T20:33:16.519Z,15.03
2023-12-27T20:35:43.248Z,17.27
2023-12-27T20:38:10.297Z,13.03
2023-12-27T20:40:37.278Z,14.23
2023-12-27T20:43:05.165Z,16.97
2023-12-27T20:45:32.024Z,16.80
2023-12-27T20:47:59.496Z,22.20
2023-12-27T20:50:27.640Z,21.20
2023-12-27T20:52:56.104Z,14.20
2023-12-27T20:55:23.013Z,14.13
2023-12-27T20:57:50.443Z,14.17
2023-12-27T21:00:17.469Z,13.07
2023-12-27T21:02:44.457Z,18.53
2023-12-27T21:05:12.355Z,13.27
2023-12-27T21:07:39.582Z,14.43
2023-12-27T21:10:07.843Z,11.50
2023-12-27T21:12:40.386Z,11.00
2023-12-27T21:15:09.912Z,12.20
2023-12-27T21:17:39.405Z,15.03
2023-12-27T21:20:07.498Z,14.37
2023-12-27T21:22:34.727Z,13.47
2023-12-27T21:25:01.822Z,10.00
2023-12-27T21:27:28.642Z,11.00
2023-12-27T21:30:01.201Z,14.47
2023-12-27T21:32:29.285Z,14.20
2023-12-27T21:34:56.654Z,13.60
2023-12-27T21:37:23.481Z,12.80
2023-12-27T21:39:50.264Z,11.83
2023-12-27T21:42:17.018Z,10.80
2023-12-27T21:44:43.772Z,14.53
2023-12-27T21:47:10.432Z,13.23
2023-12-27T21:49:37.333Z,12.47
2023-12-27T21:52:04.417Z,10.90
2023-12-27T21:54:38.552Z,12.30
2023-12-27T21:57:08.665Z,16.10
2023-12-27T21:59:35.671Z,28.23
2023-12-27T22:02:02.683Z,25.10
2023-12-27T22:04:29.623Z,23.07
2023-12-27T22:06:56.317Z,17.63
2023-12-27T22:09:23.156Z,19.57
2023-12-27T22:11:50.092Z,20.63
2023-12-27T22:14:16.891Z,25.47
2023-12-27T22:16:43.540Z,17.27
2023-12-27T22:19:10.486Z,18.90
2023-12-27T22:21:37.994Z,15.27
2023-12-27T22:24:05.135Z,18.90
2023-12-27T22:26:31.966Z,15.13
2023-12-27T22:28:58.636Z,19.00
2023-12-27T22:31:25.928Z,20.13
2023-12-27T22:33:53.041Z,16.47
2023-12-27T22:36:23.103Z,17.90
2023-12-27T22:38:54.274Z,21.33
2023-12-27T22:41:21.005Z,21.23
2023-12-27T22:43:47.653Z,24.10
2023-12-27T22:46:16.500Z,23.43
2023-12-27T22:48:43.372Z,27.50
2023-12-27T22:51:10.176Z,24.90
2023-12-27T22:53:36.921Z,26.50
2023-12-27T22:56:03.801Z,26.97
2023-12-27T22:58:30.484Z,20.17
2023-12-27T23:00:57.473Z,17.03
2023-12-27T23:03:25.325Z,15.67
2023-12-27T23:06:39.709Z,12.50
2023-12-27T23:13:45.732Z,14.97
2023-12-27T23:17:05.315Z,17.00
2023-12-27T23:19:32.277Z,20.57
2023-12-27T23:21:59.089Z,25.97
2023-12-27T23:24:25.843Z,36.27
2023-12-27T23:26:52.570Z,34.53
2023-12-27T23:29:19.238Z,38.83
2023-12-27T23:31:45.945Z,23.40
2023-12-27T23:34:13.057Z,21.77
2023-12-27T23:36:39.885Z,16.83
2023-12-27T23:39:06.594Z,16.93
2023-12-27T23:41:35.816Z,20.70
2023-12-27T23:44:02.523Z,21.97
2023-12-27T23:46:29.210Z,16.57
2023-12-27T23:48:57.269Z,18.43
2023-12-27T23:51:24.099Z,15.90
2023-12-27T23:53:50.820Z,14.30
2023-12-27T23:56:17.630Z,15.20
2023-12-27T23:58:44.552Z,15.73
